createdAt,value
2023-05-09T00:04:11.384Z,101698.58
2023-05-09T00:09:14.246Z,101695.12
2023-05-09T00:14:18.472Z,101692.73
2023-05-09T00:19:21.128Z,101693.70
2023-05-09T00:24:23.810Z,101692.12
2023-05-09T00:29:26.530Z,101696.88
2023-05-09T00:34:29.225Z,101690.14
2023-05-09T00:39:31.929Z,101686.41
2023-05-09T00:44:34.609Z,101687.57
2023-05-09T00:49:38.147Z,101685.38
2023-05-09T00:54:42.680Z,101682.36
2023-05-09T00:59:45.474Z,101675.88
2023-05-09T01:04:48.513Z,101675.90
2023-05-09T01:10:00.396Z,101679.36
2023-05-09T01:15:19.443Z,101678.64
2023-05-09T01:20:22.677Z,101675.16
2023-05-09T01:26:05.564Z,101673.56
2023-05-09T01:31:09.648Z,101673.58
2023-05-09T01:36:17.340Z,101676.08
2023-05-09T01:41:23.909Z,101675.45
2023-05-09T01:46:28.540Z,101673.36
2023-05-09T01:51:34.444Z,101670.18
2023-05-09T01:56:39.093Z,101665.84
2023-05-09T02:01:44.644Z,101669.61
2023-05-09T02:06:53.327Z,101669.23
2023-05-09T02:11:56.012Z,101667.33
2023-05-09T02:17:06.415Z,101666.29
2023-05-09T02:22:09.656Z,101668.36
2023-05-09T02:27:13.879Z,101678.40
2023-05-09T02:32:21.235Z,101675.66
2023-05-09T02:37:25.371Z,101675.11
2023-05-09T02:42:30.251Z,101685.10
2023-05-09T02:47:32.953Z,101687.69
2023-05-09T02:52:35.803Z,101680.57
2023-05-09T02:57:38.567Z,101682.24
2023-05-09T03:02:41.470Z,101679.27
2023-05-09T03:07:45.049Z,101677.37
2023-05-09T03:12:47.792Z,101680.94
2023-05-09T03:17:50.564Z,101679.17
2023-05-09T03:22:53.397Z,101678.17
2023-05-09T03:27:56.192Z,101685.10
2023-05-09T03:32:58.872Z,101683.70
2023-05-09T03:38:01.567Z,101682.83
2023-05-09T03:43:04.920Z,101686.17
2023-05-09T03:48:09.855Z,101688.11
2023-05-09T03:53:12.600Z,101692.98
2023-05-09T03:58:15.307Z,101691.96
2023-05-09T04:03:18.138Z,101691.38
2023-05-09T04:08:20.924Z,101692.62
2023-05-09T04:13:23.660Z,101698.52
2023-05-09T04:18:26.402Z,101696.14
2023-05-09T04:23:29.139Z,101694.81
2023-05-09T04:28:32.045Z,101697.24
2023-05-09T04:33:35.984Z,101696.54
2023-05-09T04:38:38.706Z,101699.83
2023-05-09T04:43:41.548Z,101706.35
2023-05-09T04:48:44.251Z,101702.14
2023-05-09T04:53:47.311Z,101703.64
2023-05-09T04:58:50.397Z,101706.48
2023-05-09T05:03:53.060Z,101707.91
2023-05-09T05:08:56.188Z,101706.98
2023-05-09T05:13:59.236Z,101707.59
2023-05-09T05:19:02.320Z,101707.13
2023-05-09T05:24:05.193Z,101698.53
2023-05-09T05:29:07.999Z,101699.75
2023-05-09T05:34:11.155Z,101702.94
2023-05-09T05:39:14.064Z,101695.34
2023-05-09T05:44:16.776Z,101693.88
2023-05-09T05:49:19.509Z,101686.98
2023-05-09T05:54:22.525Z,101685.23
2023-05-09T05:59:28.258Z,101691.27
2023-05-09T06:04:31.099Z,101684.54
2023-05-09T06:10:06.117Z,101680.10
2023-05-09T06:15:21.216Z,101682.90
2023-05-09T06:20:23.891Z,101677.69
2023-05-09T06:25:26.679Z,101675.72
2023-05-09T06:30:29.745Z,101676.43
2023-05-09T06:35:34.264Z,101673.27
2023-05-09T06:40:37.312Z,101670.67
2023-05-09T06:45:41.784Z,101669.37
2023-05-09T06:50:45.110Z,101667.77
2023-05-09T06:55:50.608Z,101670.63
2023-05-09T07:00:54.400Z,101670.87
2023-05-09T07:05:58.986Z,101659.20
2023-05-09T07:11:01.744Z,101653.56
2023-05-09T07:16:05.566Z,101653.23
2023-05-09T07:21:08.803Z,101650.70
2023-05-09T07:26:11.626Z,101645.35
2023-05-09T07:31:14.425Z,101647.00
2023-05-09T07:36:17.471Z,101634.20
2023-05-09T07:41:20.766Z,101629.70
2023-05-09T07:46:31.140Z,101628.73
2023-05-09T07:51:34.148Z,101626.30
2023-05-09T07:56:37.099Z,101618.77
2023-05-09T08:01:40.005Z,101613.44
2023-05-09T08:06:42.854Z,101613.77
2023-05-09T08:11:48.985Z,101600.94
2023-05-09T08:16:53.331Z,101596.87
2023-05-09T08:21:56.570Z,101597.41
2023-05-09T08:26:59.955Z,101590.55
2023-05-09T08:32:02.725Z,101580.93
2023-05-09T08:37:05.751Z,101583.81
2023-05-09T08:42:09.951Z,101578.85
2023-05-09T08:47:15.721Z,101567.97
2023-05-09T08:52:21.950Z,101566.73
2023-05-09T08:57:27.858Z,101554.39
2023-05-09T09:02:37.726Z,101553.64
2023-05-09T09:07:42.885Z,101545.77
2023-05-09T09:12:50.260Z,101544.77
2023-05-09T09:18:01.361Z,101536.65
2023-05-09T09:23:10.591Z,101535.17
2023-05-09T09:28:13.445Z,101530.05
2023-05-09T09:33:22.962Z,101531.65
2023-05-09T09:38:31.363Z,101527.14
2023-05-09T09:43:34.658Z,101521.30
2023-05-09T09:48:40.201Z,101516.54
2023-05-09T09:53:46.975Z,101513.05
2023-05-09T09:58:50.479Z,101519.91
2023-05-09T10:03:56.292Z,101503.66
2023-05-09T10:09:11.337Z,101500.45
2023-05-09T10:14:41.568Z,101496.78
2023-05-09T10:19:50.128Z,101492.70
2023-05-09T10:25:14.746Z,101484.56
2023-05-09T10:30:22.687Z,101474.55
2023-05-09T10:35:37.077Z,101467.62
2023-05-09T10:41:00.693Z,101462.04
2023-05-09T10:46:17.050Z,101454.23
2023-05-09T10:51:21.609Z,101447.04
2023-05-09T10:56:24.620Z,101448.56
2023-05-09T11:01:39.732Z,101429.42
2023-05-09T11:06:53.985Z,101427.65
2023-05-09T11:12:00.697Z,101421.23
2023-05-09T11:17:23.424Z,101411.21
2023-05-09T11:22:33.135Z,101399.73
2023-05-09T11:27:52.283Z,101400.09
2023-05-09T11:32:55.917Z,101389.00
2023-05-09T11:38:26.031Z,101388.49
2023-05-09T11:44:16.907Z,101380.92
2023-05-09T11:49:51.210Z,101371.86
2023-05-09T11:55:07.072Z,101359.77
2023-05-09T12:00:18.162Z,101362.22
2023-05-09T12:05:23.809Z,101355.11
2023-05-09T12:10:28.908Z,101350.00
2023-05-09T12:15:38.952Z,101337.50
2023-05-09T12:20:48.566Z,101325.70
2023-05-09T12:25:56.034Z,101328.18
2023-05-09T12:30:59.152Z,101320.11
2023-05-09T12:36:04.021Z,101315.67
2023-05-09T12:41:15.535Z,101312.10
2023-05-09T12:46:30.979Z,101306.59
2023-05-09T12:51:36.507Z,101299.73
2023-05-09T12:56:43.547Z,101288.95
2023-05-09T13:01:53.824Z,101282.34
2023-05-09T13:06:58.703Z,101277.67
2023-05-09T13:12:04.389Z,101270.51
2023-05-09T13:17:08.934Z,101261.30
2023-05-09T13:22:12.447Z,101258.02
2023-05-09T13:27:15.545Z,101252.90
2023-05-09T13:32:18.620Z,101247.95
2023-05-09T13:37:21.816Z,101243.23
2023-05-09T13:42:24.726Z,101228.55
2023-05-09T13:47:27.647Z,101217.25
2023-05-09T13:52:30.397Z,101212.42
2023-05-09T13:57:33.160Z,101205.05
2023-05-09T14:02:39.874Z,101199.84
2023-05-09T14:07:43.205Z,101198.69
2023-05-09T14:12:47.329Z,101192.42
2023-05-09T14:17:50.207Z,101182.15
2023-05-09T14:22:55.232Z,101183.08
2023-05-09T14:27:59.438Z,101182.42
2023-05-09T14:33:02.200Z,101178.09
2023-05-09T14:38:04.880Z,101168.49
2023-05-09T14:43:07.668Z,101167.34
2023-05-09T14:48:10.739Z,101165.23
2023-05-09T14:53:13.548Z,101165.86
2023-05-09T14:58:18.420Z,101157.39
2023-05-09T15:03:21.173Z,101150.52
2023-05-09T15:08:23.953Z,101145.09
2023-05-09T15:13:26.770Z,101138.70
2023-05-09T15:18:30.074Z,101134.02
2023-05-09T15:23:32.794Z,101127.90
2023-05-09T15:28:35.739Z,101120.92
2023-05-09T15:33:38.473Z,101114.02
2023-05-09T15:38:41.146Z,101108.86
2023-05-09T15:43:43.862Z,101103.42
2023-05-09T15:48:46.666Z,101101.44
2023-05-09T15:53:50.526Z,101101.77
2023-05-09T15:58:53.204Z,101095.46
2023-05-09T16:03:56.177Z,101085.31
2023-05-09T16:08:59.123Z,101079.31
2023-05-09T16:14:02.088Z,101070.95
2023-05-09T16:19:08.646Z,101067.27
2023-05-09T16:24:11.740Z,101066.90
2023-05-09T16:29:14.444Z,101057.88
2023-05-09T16:34:17.141Z,101055.20
2023-05-09T16:39:19.872Z,101049.66
2023-05-09T16:44:23.029Z,101047.68
2023-05-09T16:49:25.839Z,101042.16
2023-05-09T16:54:28.603Z,101043.20
2023-05-09T16:59:32.813Z,101032.94
2023-05-09T17:04:37.524Z,101028.39
2023-05-09T17:09:40.789Z,101023.50
2023-05-09T17:14:45.307Z,101026.77
2023-05-09T17:19:48.561Z,101021.36
2023-05-09T17:24:51.382Z,101019.39
2023-05-09T17:29:54.047Z,101021.08
2023-05-09T17:34:56.705Z,101017.36
2023-05-09T17:39:59.364Z,101012.75
2023-05-09T17:45:02.131Z,101011.37
2023-05-09T17:50:05.584Z,101013.45
2023-05-09T17:55:08.796Z,101015.20
2023-05-09T18:00:13.058Z,101017.95
2023-05-09T18:05:16.269Z,101021.84
2023-05-09T18:10:20.401Z,101020.91
2023-05-09T18:15:24.169Z,101021.86
2023-05-09T18:20:26.843Z,101024.65
2023-05-09T18:25:29.564Z,101026.25
2023-05-09T18:30:32.514Z,101028.73
2023-05-09T18:35:35.218Z,101026.44
2023-05-09T18:40:38.053Z,101027.88
2023-05-09T18:45:45.040Z,101029.42
2023-05-09T18:50:48.547Z,101032.04
2023-05-09T18:55:51.364Z,101029.20
2023-05-09T19:00:54.119Z,101036.59
2023-05-09T19:05:58.716Z,101041.17
2023-05-09T19:11:01.374Z,101035.76
2023-05-09T19:16:08.833Z,101035.71
2023-05-09T19:26:33.921Z,101034.97
2023-05-09T19:31:37.927Z,101028.39
2023-05-09T19:36:40.639Z,101022.45
2023-05-09T19:41:43.612Z,101023.50
2023-05-09T19:46:46.531Z,101025.71
2023-05-09T19:51:49.258Z,101025.21
2023-05-09T19:56:51.931Z,101016.95
2023-05-09T20:01:54.727Z,101026.59
2023-05-09T20:06:57.465Z,101028.87
2023-05-09T20:12:02.752Z,101036.73
2023-05-09T20:17:06.521Z,101037.61
2023-05-09T20:22:09.567Z,101034.08
2023-05-09T20:27:12.772Z,101036.96
2023-05-09T20:32:15.469Z,101036.91
2023-05-09T20:37:18.144Z,101037.23
2023-05-09T20:42:20.818Z,101043.03
2023-05-09T20:47:23.648Z,101040.27
2023-05-09T20:52:26.321Z,101041.34
2023-05-09T20:57:29.019Z,101041.89
2023-05-09T21:02:31.740Z,101038.70
2023-05-09T21:07:34.409Z,101039.26
2023-05-09T21:12:37.230Z,101038.64
2023-05-09T21:17:39.934Z,101038.11
2023-05-09T21:22:42.722Z,101035.83
2023-05-09T21:27:45.370Z,101034.33
2023-05-09T21:32:51.003Z,101034.41
2023-05-09T21:37:53.669Z,101034.86
2023-05-09T21:42:56.417Z,101031.60
2023-05-09T21:47:59.241Z,101030.45
2023-05-09T21:53:02.151Z,101032.00
2023-05-09T21:58:04.924Z,101031.80
2023-05-09T22:03:07.805Z,101034.85
2023-05-09T22:08:10.553Z,101037.77
2023-05-09T22:13:13.530Z,101035.72
2023-05-09T22:18:16.262Z,101032.86
2023-05-09T22:23:18.908Z,101034.27
2023-05-09T22:28:21.725Z,101036.66
2023-05-09T22:33:24.388Z,101034.08
2023-05-09T22:38:27.051Z,101030.54
2023-05-09T22:43:38.715Z,101029.90
2023-05-09T22:48:42.145Z,101026.55
2023-05-09T22:53:44.813Z,101030.65
2023-05-09T22:58:47.549Z,101021.83
2023-05-09T23:03:50.885Z,101021.36
2023-05-09T23:08:53.624Z,101019.77
2023-05-09T23:13:56.338Z,101020.20
2023-05-09T23:18:59.607Z,101018.25
2023-05-09T23:24:02.300Z,101014.91
2023-05-09T23:29:05.003Z,101015.26
2023-05-09T23:34:07.665Z,101015.83
2023-05-09T23:39:10.810Z,101016.13
2023-05-09T23:44:13.549Z,101012.84
2023-05-09T23:49:16.327Z,101017.39
2023-05-09T23:54:21.384Z,101016.05
2023-05-09T23:59:24.527Z,101011.52
